This is the latest recevied weather packets stored in our database for station/object WP3OF-2. If no packets are shown the sender has not sent any weather packets the latest 1 day(s).
| Time | Temp. | Humidity | Pressure | Rain* | Wind** | Luminosity | Snow |
|---|---|---|---|---|---|---|---|
| 1778086635 | 23.89° C | 83% | 1028.2 hPa | 0 mm | - | 745 W/m² | - |
| 1778086029 | 25° C | 81% | 1028.2 hPa | 0 mm | - | 437 W/m² | - |
| 1778085726 | 23.89° C | 83% | 1028.2 hPa | 0 mm | - | 944 W/m² | - |
| 1778085422 | 24.44° C | 83% | 1028.2 hPa | 0 mm | - | 428 W/m² | - |
| 1778084511 | 24.44° C | 83% | 1028.5 hPa | 0 mm | - | 909 W/m² | - |
| 1778083905 | 23.89° C | 81% | 1028.5 hPa | 0 mm | - | 928 W/m² | - |
| 1778082998 | 23.89° C | 84% | 1028.5 hPa | 0 mm | - | 304 W/m² | - |
| 1778080951 | 22.78° C | 84% | 1029 hPa | 0 mm | - | 865 W/m² | - |
| 1778080346 | 22.78° C | 86% | 1029 hPa | 0 mm | - | 854 W/m² | - |
| 1778079740 | 22.78° C | 86% | 1029 hPa | 0 mm | - | 327 W/m² | - |
| 1778077923 | 21.67° C | 86% | 1028.5 hPa | 0 mm | - | 243 W/m² | - |
| 1778076714 | 22.22° C | 86% | 1029 hPa | 0 mm | - | 354 W/m² | - |
| 1778072471 | 21.11° C | 89% | 1028.5 hPa | 0 mm | - | 674 W/m² | - |
| 1778072169 | 21.11° C | 89% | 1028.2 hPa | 0 mm | - | 618 W/m² | - |
| 1778069445 | 20.56° C | 91% | 1027.9 hPa | 0 mm | - | 324 W/m² | - |
| 1778067632 | 20° C | 93% | 1027.4 hPa | 0 mm | - | 205 W/m² | - |
| 1778066723 | 19.44° C | 92% | 1027.4 hPa | 0 mm | - | 154 W/m² | - |
| 1778065513 | 19.44° C | 92% | 1027.4 hPa | 0 mm | - | 46 W/m² | - |
| 1778065210 | 19.44° C | 92% | 1027.4 hPa | 0 mm | - | 43 W/m² | - |
| 1778063999 | 18.89° C | 93% | 1027.1 hPa | 0 mm | - | 31 W/m² | - |
| 1778063696 | 18.89° C | 93% | 1027.1 hPa | 0 mm | - | 28 W/m² | - |
| 1778063091 | 18.89° C | 93% | 1026.7 hPa | 0 mm | - | 21 W/m² | - |
| 1778062788 | 18.89° C | 93% | 1026.7 hPa | 0 mm | - | 17 W/m² | - |
| 1778061880 | 18.33° C | 93% | 1026.7 hPa | 0 mm | - | 6 W/m² | - |
| 1778059763 | 18.33° C | 94% | 1026.7 hPa | 0 mm | - | 0 W/m² | - |
* Rain latest hour (hover to see other rain measurements)
** Current wind speed in m/s (hover to see current wind gust speed)